Washington, District of Columbia
Traffic Map
Current Weather Conditions
Washington, District of Columbia
Overcast Light Rain
Overcast

Feels Like: 7°
Wind Chill: Ceiling: 2800
Heat Index: Visibility: 6mi
Dew Point: Wind: 5mph
Humidity: 81% Direction: 50° (NE)
Pressure: 30.1in Gusts: 0mph
Raw Report DataKDCA 261127Z 05004KT 6SM -RA BKN028 OVC035 08/05 A3010 RMK AO2 P0006
Traffic Incident Summary
Active as of:
Severity:
Category:
InformationThere was an issue retrieving the traffic information for this location. Please try a different location or try again shortly.
Advertisements
Track Severe Weather on mobile